This is the latest recevied weather packets stored in our database for station/object W2GUX. If no packets are shown the sender has not sent any weather packets the latest 1 day(s).
| Time | Temp. | Humidity | Pressure | Rain* | Wind** | Luminosity | Snow |
|---|---|---|---|---|---|---|---|
| 1778115304 | 17.78° C | 86% | 1004.3 hPa | 0 mm | - | - | - |
| 1778114704 | 17.78° C | 85% | 1004.1 hPa | 0 mm | - | - | - |
| 1778113503 | 17.78° C | 85% | 1004 hPa | 0 mm | - | - | - |
| 1778112904 | 17.78° C | 85% | 1004.1 hPa | 0 mm | - | - | - |
| 1778112604 | 17.78° C | 85% | 1004.1 hPa | 0 mm | - | - | - |
| 1778111705 | 17.78° C | 84% | 1004.1 hPa | 0 mm | - | - | - |
| 1778111404 | 17.78° C | 84% | 1003.9 hPa | 0 mm | - | - | - |
| 1778109904 | 17.78° C | 84% | 1003.7 hPa | 0 mm | - | - | - |
| 1778108704 | 18.33° C | 84% | 1003.9 hPa | 0 mm | - | - | - |
| 1778107204 | 18.33° C | 83% | 1003.6 hPa | 0 mm | - | - | - |
| 1778105704 | 18.33° C | 84% | 1003.5 hPa | 0 mm | - | - | - |
| 1778105404 | 17.78° C | 84% | 1003.4 hPa | 0 mm | - | - | - |
| 1778104504 | 17.78° C | 85% | 1003.4 hPa | 0 mm | - | - | - |
| 1778101504 | 17.78° C | 87% | 1003 hPa | 0 mm | - | - | - |
| 1778100004 | 17.78° C | 87% | 1003 hPa | 0 mm | - | - | - |
| 1778096703 | 17.22° C | 87% | 1003.5 hPa | 0.25 mm | - | - | - |
| 1778094904 | 17.78° C | 85% | 1003.8 hPa | 0.25 mm | - | - | - |
| 1778093703 | 18.33° C | 81% | 1003.9 hPa | 0 mm | - | - | - |
| 1778093404 | 18.33° C | 80% | 1003.9 hPa | 0 mm | - | - | - |
| 1778091004 | 18.89° C | 80% | 1004.1 hPa | 0.25 mm | - | - | - |
| 1778088304 | 18.33° C | 82% | 1004.2 hPa | 0.25 mm | - | - | - |
| 1778086804 | 18.89° C | 80% | 1004.5 hPa | 0.51 mm | - | - | - |
| 1778084104 | 20° C | 70% | 1005.5 hPa | 0 mm | - | - | - |
| 1778082604 | 20.56° C | 66% | 1005.5 hPa | 0 mm | - | - | - |
| 1778081104 | 21.11° C | 61% | 1005.5 hPa | 0 mm | - | - | - |
* Rain latest hour (hover to see other rain measurements)
** Current wind speed in m/s (hover to see current wind gust speed)